sensor_id;sensor_type;location;lat;lon;timestamp;pressure;altitude;pressure_sealevel;temperature;humidity
64019;BME280;66942;52.138;5.216;2023-06-22T00:00:03;102007.0;;;24.88;49.0
64019;BME280;66942;52.138;5.216;2023-06-22T00:01:38;102014.0;;;25.01;48.45
64019;BME280;66942;52.138;5.216;2023-06-22T00:04:51;102013.0;;;25.09;48.16
64019;BME280;66942;52.138;5.216;2023-06-22T00:06:27;102008.0;;;25.06;48.18
64019;BME280;66942;52.138;5.216;2023-06-22T00:08:04;102005.0;;;24.96;48.5
64019;BME280;66942;52.138;5.216;2023-06-22T00:09:40;102009.0;;;24.91;48.73
64019;BME280;66942;52.138;5.216;2023-06-22T00:12:52;102007.0;;;24.93;48.61
64019;BME280;66942;52.138;5.216;2023-06-22T00:14:29;102009.0;;;24.86;48.97
64019;BME280;66942;52.138;5.216;2023-06-22T00:16:05;102013.0;;;24.79;49.04
64019;BME280;66942;52.138;5.216;2023-06-22T00:19:17;102014.0;;;24.75;49.01
64019;BME280;66942;52.138;5.216;2023-06-22T00:20:54;102011.0;;;24.81;48.98
64019;BME280;66942;52.138;5.216;2023-06-22T00:22:30;102011.0;;;24.82;49.01
64019;BME280;66942;52.138;5.216;2023-06-22T00:25:43;102005.0;;;24.79;48.97
64019;BME280;66942;52.138;5.216;2023-06-22T00:27:19;102005.0;;;24.76;49.04
64019;BME280;66942;52.138;5.216;2023-06-22T00:28:55;102003.0;;;24.72;49.08
64019;BME280;66942;52.138;5.216;2023-06-22T00:30:32;101997.0;;;24.85;48.69
64019;BME280;66942;52.138;5.216;2023-06-22T00:33:45;101995.0;;;24.81;48.76
64019;BME280;66942;52.138;5.216;2023-06-22T00:35:21;101990.0;;;24.7;49.04
64019;BME280;66942;52.138;5.216;2023-06-22T00:36:57;101990.0;;;24.69;49.19
64019;BME280;66942;52.138;5.216;2023-06-22T00:40:10;101985.0;;;24.65;49.25
64019;BME280;66942;52.138;5.216;2023-06-22T00:41:46;101987.0;;;24.56;49.57
64019;BME280;66942;52.138;5.216;2023-06-22T00:43:23;101987.0;;;24.51;49.53
64019;BME280;66942;52.138;5.216;2023-06-22T00:46:35;101984.0;;;24.52;49.42
64019;BME280;66942;52.138;5.216;2023-06-22T00:48:12;101980.0;;;24.43;49.69
64019;BME280;66942;52.138;5.216;2023-06-22T00:49:49;101978.0;;;24.4;49.74
64019;BME280;66942;52.138;5.216;2023-06-22T00:51:27;101980.0;;;24.5;49.42
64019;BME280;66942;52.138;5.216;2023-06-22T00:54:43;101971.0;;;24.47;49.45
64019;BME280;66942;52.138;5.216;2023-06-22T00:56:20;101977.0;;;24.42;49.71
64019;BME280;66942;52.138;5.216;2023-06-22T00:57:56;101980.0;;;24.41;49.57
64019;BME280;66942;52.138;5.216;2023-06-22T01:01:09;101976.0;;;24.36;49.5
64019;BME280;66942;52.138;5.216;2023-06-22T01:02:45;101978.0;;;24.43;49.16
64019;BME280;66942;52.138;5.216;2023-06-22T01:04:34;101976.0;;;24.54;48.78
64019;BME280;66942;52.138;5.216;2023-06-22T01:06:15;101978.0;;;24.38;49.08
64019;BME280;66942;52.138;5.216;2023-06-22T01:09:46;101978.0;;;24.4;48.95
64019;BME280;66942;52.138;5.216;2023-06-22T01:11:32;101972.0;;;24.28;49.25
64019;BME280;66942;52.138;5.216;2023-06-22T01:13:18;101966.0;;;24.17;49.69
64019;BME280;66942;52.138;5.216;2023-06-22T01:15:07;101963.0;;;24.13;49.54
64019;BME280;66942;52.138;5.216;2023-06-22T01:16:45;101967.0;;;24.15;49.41
64019;BME280;66942;52.138;5.216;2023-06-22T01:20:07;101970.0;;;24.15;49.35
64019;BME280;66942;52.138;5.216;2023-06-22T01:21:45;101974.0;;;24.1;49.5
64019;BME280;66942;52.138;5.216;2023-06-22T01:23:27;101966.0;;;24.17;49.11
64019;BME280;66942;52.138;5.216;2023-06-22T01:25:11;101969.0;;;24.05;49.45
64019;BME280;66942;52.138;5.216;2023-06-22T01:28:45;101971.0;;;24.01;49.49
64019;BME280;66942;52.138;5.216;2023-06-22T01:30:22;101978.0;;;24.04;49.29
64019;BME280;66942;52.138;5.216;2023-06-22T01:32:01;101983.0;;;23.91;49.61
64019;BME280;66942;52.138;5.216;2023-06-22T01:33:42;101981.0;;;23.98;49.42
64019;BME280;66942;52.138;5.216;2023-06-22T01:36:58;101975.0;;;24.03;49.26
64019;BME280;66942;52.138;5.216;2023-06-22T01:38:37;101971.0;;;24.05;49.08
64019;BME280;66942;52.138;5.216;2023-06-22T01:40:14;101972.0;;;24.03;49.12
64019;BME280;66942;52.138;5.216;2023-06-22T01:41:52;101971.0;;;24.0;49.29
64019;BME280;66942;52.138;5.216;2023-06-22T01:45:07;101971.0;;;24.02;49.18
64019;BME280;66942;52.138;5.216;2023-06-22T01:46:44;101971.0;;;23.99;49.18
64019;BME280;66942;52.138;5.216;2023-06-22T01:48:21;101971.0;;;23.86;49.56
64019;BME280;66942;52.138;5.216;2023-06-22T01:51:34;101972.0;;;23.93;49.21
64019;BME280;66942;52.138;5.216;2023-06-22T01:53:10;101975.0;;;23.83;49.59
64019;BME280;66942;52.138;5.216;2023-06-22T01:54:46;101968.0;;;23.79;49.64
64019;BME280;66942;52.138;5.216;2023-06-22T01:56:23;101962.0;;;23.73;49.59
64019;BME280;66942;52.138;5.216;2023-06-22T01:59:44;101966.0;;;23.73;49.53
64019;BME280;66942;52.138;5.216;2023-06-22T02:01:28;101964.0;;;23.67;49.61
64019;BME280;66942;52.138;5.216;2023-06-22T02:03:10;101967.0;;;23.75;49.45
64019;BME280;66942;52.138;5.216;2023-06-22T02:04:53;101960.0;;;23.74;49.49
64019;BME280;66942;52.138;5.216;2023-06-22T02:08:17;101960.0;;;23.62;50.08
64019;BME280;66942;52.138;5.216;2023-06-22T02:09:57;101963.0;;;23.57;49.92
64019;BME280;66942;52.138;5.216;2023-06-22T02:11:36;101960.0;;;23.39;50.76
64019;BME280;66942;52.138;5.216;2023-06-22T02:13:14;101955.0;;;23.51;50.11
64019;BME280;66942;52.138;5.216;2023-06-22T02:16:30;101955.0;;;23.5;50.16
64019;BME280;66942;52.138;5.216;2023-06-22T02:18:08;101955.0;;;23.42;50.17
64019;BME280;66942;52.138;5.216;2023-06-22T02:19:44;101955.0;;;23.41;50.19
64019;BME280;66942;52.138;5.216;2023-06-22T02:22:57;101957.0;;;23.48;49.94
64019;BME280;66942;52.138;5.216;2023-06-22T02:24:33;101956.0;;;23.5;49.82
64019;BME280;66942;52.138;5.216;2023-06-22T02:26:09;101949.0;;;23.5;49.73
64019;BME280;66942;52.138;5.216;2023-06-22T02:27:46;101948.0;;;23.46;49.75
64019;BME280;66942;52.138;5.216;2023-06-22T02:30:58;101953.0;;;23.49;49.61
64019;BME280;66942;52.138;5.216;2023-06-22T02:32:34;101952.0;;;23.51;49.49
64019;BME280;66942;52.138;5.216;2023-06-22T02:34:11;101952.0;;;23.54;49.23
64019;BME280;66942;52.138;5.216;2023-06-22T02:37:24;101950.0;;;23.49;49.28
64019;BME280;66942;52.138;5.216;2023-06-22T02:39:00;101948.0;;;23.48;49.3
64019;BME280;66942;52.138;5.216;2023-06-22T02:40:36;101948.0;;;23.32;49.64
64019;BME280;66942;52.138;5.216;2023-06-22T02:43:48;101949.0;;;23.31;49.53
64019;BME280;66942;52.138;5.216;2023-06-22T02:45:25;101946.0;;;23.31;49.52
64019;BME280;66942;52.138;5.216;2023-06-22T02:47:01;101950.0;;;23.26;49.63
64019;BME280;66942;52.138;5.216;2023-06-22T02:48:39;101956.0;;;23.33;49.35
64019;BME280;66942;52.138;5.216;2023-06-22T02:51:51;101957.0;;;23.17;49.73
64019;BME280;66942;52.138;5.216;2023-06-22T02:53:28;101952.0;;;23.1;49.95
64019;BME280;66942;52.138;5.216;2023-06-22T02:55:05;101949.0;;;23.17;49.77
64019;BME280;66942;52.138;5.216;2023-06-22T02:58:18;101952.0;;;23.16;49.83
64019;BME280;66942;52.138;5.216;2023-06-22T02:59:54;101950.0;;;23.07;50.01
64019;BME280;66942;52.138;5.216;2023-06-22T03:01:30;101955.0;;;23.06;49.91
64019;BME280;66942;52.138;5.216;2023-06-22T03:04:44;101953.0;;;22.97;49.96
64019;BME280;66942;52.138;5.216;2023-06-22T03:06:20;101950.0;;;23.0;50.14
64019;BME280;66942;52.138;5.216;2023-06-22T03:07:56;101949.0;;;23.01;50.02
64019;BME280;66942;52.138;5.216;2023-06-22T03:09:32;101949.0;;;23.09;49.79
64019;BME280;66942;52.138;5.216;2023-06-22T03:12:45;101947.0;;;23.04;49.86
64019;BME280;66942;52.138;5.216;2023-06-22T03:14:23;101946.0;;;23.08;49.79
64019;BME280;66942;52.138;5.216;2023-06-22T03:15:59;101943.0;;;23.13;49.55
64019;BME280;66942;52.138;5.216;2023-06-22T03:19:13;101944.0;;;23.03;49.68
64019;BME280;66942;52.138;5.216;2023-06-22T03:20:49;101944.0;;;22.95;50.11
64019;BME280;66942;52.138;5.216;2023-06-22T03:22:25;101945.0;;;23.12;49.46
64019;BME280;66942;52.138;5.216;2023-06-22T03:25:37;101948.0;;;23.0;49.8
64019;BME280;66942;52.138;5.216;2023-06-22T03:27:13;101950.0;;;22.95;49.89
64019;BME280;66942;52.138;5.216;2023-06-22T03:28:49;101945.0;;;22.95;49.84
64019;BME280;66942;52.138;5.216;2023-06-22T03:30:26;101935.0;;;22.95;49.79
64019;BME280;66942;52.138;5.216;2023-06-22T03:33:38;101932.0;;;23.01;49.66
64019;BME280;66942;52.138;5.216;2023-06-22T03:35:14;101932.0;;;22.93;49.81
64019;BME280;66942;52.138;5.216;2023-06-22T03:36:50;101927.0;;;22.89;49.87
64019;BME280;66942;52.138;5.216;2023-06-22T03:40:03;101932.0;;;23.0;49.57
64019;BME280;66942;52.138;5.216;2023-06-22T03:41:40;101927.0;;;22.89;49.86
64019;BME280;66942;52.138;5.216;2023-06-22T03:43:16;101927.0;;;22.87;49.91
64019;BME280;66942;52.138;5.216;2023-06-22T03:46:28;101930.0;;;22.95;49.7
64019;BME280;66942;52.138;5.216;2023-06-22T03:48:05;101930.0;;;22.76;50.27
64019;BME280;66942;52.138;5.216;2023-06-22T03:49:41;101927.0;;;22.83;50.08
64019;BME280;66942;52.138;5.216;2023-06-22T03:52:53;101930.0;;;22.86;50.05
64019;BME280;66942;52.138;5.216;2023-06-22T03:54:30;101932.0;;;22.96;49.82
64019;BME280;66942;52.138;5.216;2023-06-22T03:56:06;101928.0;;;22.93;49.87
64019;BME280;66942;52.138;5.216;2023-06-22T03:57:43;101921.0;;;22.94;49.92
64019;BME280;66942;52.138;5.216;2023-06-22T04:00:55;101922.0;;;22.93;50.14
64019;BME280;66942;52.138;5.216;2023-06-22T04:02:31;101920.0;;;22.95;50.16
64019;BME280;66942;52.138;5.216;2023-06-22T04:04:07;101919.0;;;22.88;50.36
64019;BME280;66942;52.138;5.216;2023-06-22T04:07:20;101919.0;;;22.88;50.4
64019;BME280;66942;52.138;5.216;2023-06-22T04:08:57;101923.0;;;22.92;50.46
64019;BME280;66942;52.138;5.216;2023-06-22T04:10:33;101921.0;;;22.94;50.43
64019;BME280;66942;52.138;5.216;2023-06-22T04:13:45;101916.0;;;23.0;50.3
64019;BME280;66942;52.138;5.216;2023-06-22T04:15:21;101914.0;;;23.05;50.24
64019;BME280;66942;52.138;5.216;2023-06-22T04:16:58;101915.0;;;23.1;50.17
64019;BME280;66942;52.138;5.216;2023-06-22T04:18:34;101907.0;;;23.17;49.96
64019;BME280;66942;52.138;5.216;2023-06-22T04:21:46;101907.0;;;23.25;49.84
64019;BME280;66942;52.138;5.216;2023-06-22T04:23:22;101911.0;;;23.14;50.29
64019;BME280;66942;52.138;5.216;2023-06-22T04:24:58;101906.0;;;23.2;50.27
64019;BME280;66942;52.138;5.216;2023-06-22T04:28:11;101905.0;;;23.15;50.49
64019;BME280;66942;52.138;5.216;2023-06-22T04:29:47;101903.0;;;23.21;50.55
64019;BME280;66942;52.138;5.216;2023-06-22T04:31:23;101903.0;;;23.26;50.69
64019;BME280;66942;52.138;5.216;2023-06-22T04:34:35;101902.0;;;23.42;50.24
64019;BME280;66942;52.138;5.216;2023-06-22T04:36:12;101902.0;;;23.45;50.27
64019;BME280;66942;52.138;5.216;2023-06-22T04:37:48;101906.0;;;23.32;50.87
64019;BME280;66942;52.138;5.216;2023-06-22T04:41:00;101908.0;;;23.39;50.87
64019;BME280;66942;52.138;5.216;2023-06-22T04:44:16;101916.0;;;23.53;50.94
64019;BME280;66942;52.138;5.216;2023-06-22T04:45:54;101912.0;;;23.58;51.01
64019;BME280;66942;52.138;5.216;2023-06-22T04:49:06;101917.0;;;23.63;51.08
64019;BME280;66942;52.138;5.216;2023-06-22T04:50:43;101912.0;;;23.66;51.2
64019;BME280;66942;52.138;5.216;2023-06-22T04:52:19;101916.0;;;23.81;51.0
64019;BME280;66942;52.138;5.216;2023-06-22T04:55:32;101915.0;;;23.85;51.09
64019;BME280;66942;52.138;5.216;2023-06-22T04:57:08;101917.0;;;23.91;51.16
64019;BME280;66942;52.138;5.216;2023-06-22T04:58:44;101919.0;;;24.04;51.11
64019;BME280;66942;52.138;5.216;2023-06-22T05:01:58;101921.0;;;24.16;51.09
64019;BME280;66942;52.138;5.216;2023-06-22T05:03:34;101924.0;;;24.36;50.66
64019;BME280;66942;52.138;5.216;2023-06-22T05:05:10;101925.0;;;24.47;50.79
64019;BME280;66942;52.138;5.216;2023-06-22T05:06:47;101925.0;;;24.43;51.21
64019;BME280;66942;52.138;5.216;2023-06-22T05:09:59;101921.0;;;24.63;50.8
64019;BME280;66942;52.138;5.216;2023-06-22T05:11:35;101913.0;;;24.72;50.68
64019;BME280;66942;52.138;5.216;2023-06-22T05:13:12;101914.0;;;24.84;50.5
64019;BME280;66942;52.138;5.216;2023-06-22T05:16:24;101915.0;;;24.78;50.87
64019;BME280;66942;52.138;5.216;2023-06-22T05:18:00;101913.0;;;24.91;50.93
64019;BME280;66942;52.138;5.216;2023-06-22T05:19:36;101917.0;;;25.1;50.84
64019;BME280;66942;52.138;5.216;2023-06-22T05:22:49;101910.0;;;25.34;50.42
64019;BME280;66942;52.138;5.216;2023-06-22T05:24:25;101912.0;;;25.37;50.57
64019;BME280;66942;52.138;5.216;2023-06-22T05:26:01;101919.0;;;25.58;50.59
64019;BME280;66942;52.138;5.216;2023-06-22T05:27:37;101916.0;;;25.73;50.55
64019;BME280;66942;52.138;5.216;2023-06-22T05:30:49;101914.0;;;26.0;50.09
64019;BME280;66942;52.138;5.216;2023-06-22T05:32:25;101913.0;;;26.08;49.99
64019;BME280;66942;52.138;5.216;2023-06-22T05:34:02;101915.0;;;26.31;49.35
64019;BME280;66942;52.138;5.216;2023-06-22T05:37:14;101919.0;;;26.39;49.29
64019;BME280;66942;52.138;5.216;2023-06-22T05:38:51;101920.0;;;26.52;49.05
64019;BME280;66942;52.138;5.216;2023-06-22T05:40:27;101923.0;;;26.66;48.85
64019;BME280;66942;52.138;5.216;2023-06-22T05:43:41;101920.0;;;26.78;48.67
64019;BME280;66942;52.138;5.216;2023-06-22T05:45:17;101922.0;;;26.91;48.37
64019;BME280;66942;52.138;5.216;2023-06-22T05:46:53;101917.0;;;26.98;48.25
64019;BME280;66942;52.138;5.216;2023-06-22T05:48:29;101919.0;;;27.16;47.87
64019;BME280;66942;52.138;5.216;2023-06-22T05:51:44;101919.0;;;27.18;48.02
64019;BME280;66942;52.138;5.216;2023-06-22T05:53:20;101920.0;;;27.34;47.81
64019;BME280;66942;52.138;5.216;2023-06-22T05:54:56;101925.0;;;27.38;47.92
64019;BME280;66942;52.138;5.216;2023-06-22T05:58:08;101923.0;;;27.42;48.08
64019;BME280;66942;52.138;5.216;2023-06-22T05:59:44;101925.0;;;27.53;47.76
64019;BME280;66942;52.138;5.216;2023-06-22T06:01:21;101926.0;;;27.63;47.4
64019;BME280;66942;52.138;5.216;2023-06-22T06:04:33;101927.0;;;27.64;47.6
64019;BME280;66942;52.138;5.216;2023-06-22T06:06:09;101930.0;;;27.83;47.19
64019;BME280;66942;52.138;5.216;2023-06-22T06:07:46;101920.0;;;27.69;47.42
64019;BME280;66942;52.138;5.216;2023-06-22T06:10:58;101916.0;;;27.77;47.42
64019;BME280;66942;52.138;5.216;2023-06-22T06:12:35;101916.0;;;27.79;47.52
64019;BME280;66942;52.138;5.216;2023-06-22T06:14:11;101917.0;;;28.04;47.49
64019;BME280;66942;52.138;5.216;2023-06-22T06:15:47;101917.0;;;28.14;46.98
64019;BME280;66942;52.138;5.216;2023-06-22T06:18:59;101913.0;;;28.36;46.98
64019;BME280;66942;52.138;5.216;2023-06-22T06:20:35;101910.0;;;28.39;46.68
64019;BME280;66942;52.138;5.216;2023-06-22T06:22:11;101906.0;;;28.52;46.6
64019;BME280;66942;52.138;5.216;2023-06-22T06:25:24;101906.0;;;28.69;46.2
64019;BME280;66942;52.138;5.216;2023-06-22T06:27:00;101901.0;;;28.79;46.13
64019;BME280;66942;52.138;5.216;2023-06-22T06:28:36;101902.0;;;28.92;45.58
64019;BME280;66942;52.138;5.216;2023-06-22T06:31:51;101897.0;;;28.93;45.33
64019;BME280;66942;52.138;5.216;2023-06-22T06:33:27;101897.0;;;29.05;45.68
64019;BME280;66942;52.138;5.216;2023-06-22T06:35:04;101892.0;;;29.18;45.33
64019;BME280;66942;52.138;5.216;2023-06-22T06:36:40;101893.0;;;29.28;45.23
64019;BME280;66942;52.138;5.216;2023-06-22T06:39:52;101892.0;;;29.33;44.78
64019;BME280;66942;52.138;5.216;2023-06-22T06:41:29;101888.0;;;29.46;44.75
64019;BME280;66942;52.138;5.216;2023-06-22T06:43:05;101883.0;;;29.49;44.18
64019;BME280;66942;52.138;5.216;2023-06-22T06:46:17;101881.0;;;29.66;43.91
64019;BME280;66942;52.138;5.216;2023-06-22T06:47:53;101883.0;;;29.69;43.59
64019;BME280;66942;52.138;5.216;2023-06-22T06:49:30;101880.0;;;29.86;43.28
64019;BME280;66942;52.138;5.216;2023-06-22T06:52:42;101880.0;;;29.81;43.0
64019;BME280;66942;52.138;5.216;2023-06-22T06:54:18;101883.0;;;29.82;42.95
64019;BME280;66942;52.138;5.216;2023-06-22T06:55:54;101883.0;;;29.95;42.7
64019;BME280;66942;52.138;5.216;2023-06-22T06:59:06;101877.0;;;30.08;42.24
64019;BME280;66942;52.138;5.216;2023-06-22T07:00:43;101874.0;;;30.07;42.12
64019;BME280;66942;52.138;5.216;2023-06-22T07:02:19;101871.0;;;30.06;42.26
64019;BME280;66942;52.138;5.216;2023-06-22T07:03:55;101875.0;;;30.27;41.94
64019;BME280;66942;52.138;5.216;2023-06-22T07:07:07;101876.0;;;30.23;42.24
64019;BME280;66942;52.138;5.216;2023-06-22T07:08:43;101874.0;;;30.25;41.83
64019;BME280;66942;52.138;5.216;2023-06-22T07:10:20;101875.0;;;30.51;41.67
64019;BME280;66942;52.138;5.216;2023-06-22T07:13:32;101870.0;;;30.63;40.9
64019;BME280;66942;52.138;5.216;2023-06-22T07:15:09;101867.0;;;30.47;40.75
64019;BME280;66942;52.138;5.216;2023-06-22T07:16:45;101872.0;;;30.89;40.21
64019;BME280;66942;52.138;5.216;2023-06-22T07:19:57;101865.0;;;30.3;40.71
64019;BME280;66942;52.138;5.216;2023-06-22T07:21:34;101864.0;;;30.88;40.03
64019;BME280;66942;52.138;5.216;2023-06-22T07:23:10;101866.0;;;30.92;39.81
64019;BME280;66942;52.138;5.216;2023-06-22T07:24:46;101873.0;;;30.85;40.15
64019;BME280;66942;52.138;5.216;2023-06-22T07:28:01;101869.0;;;30.96;40.06
64019;BME280;66942;52.138;5.216;2023-06-22T07:29:38;101875.0;;;30.74;40.24
64019;BME280;66942;52.138;5.216;2023-06-22T07:31:14;101869.0;;;31.03;39.53
64019;BME280;66942;52.138;5.216;2023-06-22T07:34:26;101868.0;;;30.98;39.69
64019;BME280;66942;52.138;5.216;2023-06-22T07:36:03;101869.0;;;31.21;39.24
64019;BME280;66942;52.138;5.216;2023-06-22T07:37:39;101866.0;;;30.93;39.03
64019;BME280;66942;52.138;5.216;2023-06-22T07:40:52;101866.0;;;31.36;38.78
64019;BME280;66942;52.138;5.216;2023-06-22T07:42:28;101863.0;;;31.45;38.5
64019;BME280;66942;52.138;5.216;2023-06-22T07:44:04;101864.0;;;31.7;38.99
64019;BME280;66942;52.138;5.216;2023-06-22T07:45:40;101856.0;;;31.92;38.65
64019;BME280;66942;52.138;5.216;2023-06-22T07:48:52;101848.0;;;32.14;37.89
64019;BME280;66942;52.138;5.216;2023-06-22T07:50:29;101844.0;;;32.1;38.54
64019;BME280;66942;52.138;5.216;2023-06-22T07:52:05;101843.0;;;32.39;37.57
64019;BME280;66942;52.138;5.216;2023-06-22T07:55:19;101846.0;;;32.8;37.1
64019;BME280;66942;52.138;5.216;2023-06-22T07:56:55;101844.0;;;32.89;36.17
64019;BME280;66942;52.138;5.216;2023-06-22T07:58:31;101845.0;;;32.99;36.64
64019;BME280;66942;52.138;5.216;2023-06-22T08:01:46;101843.0;;;33.3;35.28
64019;BME280;66942;52.138;5.216;2023-06-22T08:03:22;101844.0;;;33.44;34.83
64019;BME280;66942;52.138;5.216;2023-06-22T08:04:58;101837.0;;;33.83;34.17
64019;BME280;66942;52.138;5.216;2023-06-22T08:06:34;101837.0;;;33.35;34.68
64019;BME280;66942;52.138;5.216;2023-06-22T08:09:47;101828.0;;;33.92;34.24
64019;BME280;66942;52.138;5.216;2023-06-22T08:11:24;101826.0;;;33.87;34.14
64019;BME280;66942;52.138;5.216;2023-06-22T08:13:01;101824.0;;;33.99;33.6
64019;BME280;66942;52.138;5.216;2023-06-22T08:16:14;101816.0;;;34.31;33.55
64019;BME280;66942;52.138;5.216;2023-06-22T08:17:50;101813.0;;;34.42;33.65
64019;BME280;66942;52.138;5.216;2023-06-22T08:19:28;101811.0;;;34.58;33.69
64019;BME280;66942;52.138;5.216;2023-06-22T08:22:41;101806.0;;;34.56;33.29
64019;BME280;66942;52.138;5.216;2023-06-22T08:24:17;101803.0;;;34.56;32.82
64019;BME280;66942;52.138;5.216;2023-06-22T08:25:53;101798.0;;;34.67;32.92
64019;BME280;66942;52.138;5.216;2023-06-22T08:27:29;101795.0;;;34.58;32.47
64019;BME280;66942;52.138;5.216;2023-06-22T08:30:42;101792.0;;;34.62;32.62
64019;BME280;66942;52.138;5.216;2023-06-22T08:32:18;101790.0;;;34.69;33.3
64019;BME280;66942;52.138;5.216;2023-06-22T08:33:54;101785.0;;;34.71;33.21
64019;BME280;66942;52.138;5.216;2023-06-22T08:37:06;101789.0;;;33.22;32.72
64019;BME280;66942;52.138;5.216;2023-06-22T08:38:43;101781.0;;;34.14;31.78
64019;BME280;66942;52.138;5.216;2023-06-22T08:40:19;101786.0;;;34.39;32.85
64019;BME280;66942;52.138;5.216;2023-06-22T08:43:32;101783.0;;;34.49;32.19
64019;BME280;66942;52.138;5.216;2023-06-22T08:45:09;101783.0;;;34.6;32.24
64019;BME280;66942;52.138;5.216;2023-06-22T08:46:45;101774.0;;;34.25;31.87
64019;BME280;66942;52.138;5.216;2023-06-22T08:49:57;101769.0;;;34.14;31.48
64019;BME280;66942;52.138;5.216;2023-06-22T08:51:34;101771.0;;;34.6;31.4
64019;BME280;66942;52.138;5.216;2023-06-22T08:53:10;101769.0;;;34.89;32.05
64019;BME280;66942;52.138;5.216;2023-06-22T08:54:46;101768.0;;;34.89;29.95
64019;BME280;66942;52.138;5.216;2023-06-22T08:57:58;101772.0;;;34.82;30.08
64019;BME280;66942;52.138;5.216;2023-06-22T08:59:34;101775.0;;;34.64;29.38
64019;BME280;66942;52.138;5.216;2023-06-22T09:01:10;101776.0;;;34.64;29.32
64019;BME280;66942;52.138;5.216;2023-06-22T09:04:24;101772.0;;;34.68;29.39
64019;BME280;66942;52.138;5.216;2023-06-22T09:06:00;101770.0;;;34.69;29.93
64019;BME280;66942;52.138;5.216;2023-06-22T09:07:37;101765.0;;;34.74;29.98
64019;BME280;66942;52.138;5.216;2023-06-22T09:10:50;101761.0;;;34.17;31.06
64019;BME280;66942;52.138;5.216;2023-06-22T09:12:26;101763.0;;;34.21;30.79
64019;BME280;66942;52.138;5.216;2023-06-22T09:14:02;101765.0;;;34.31;30.18
64019;BME280;66942;52.138;5.216;2023-06-22T09:15:38;101762.0;;;34.28;30.82
64019;BME280;66942;52.138;5.216;2023-06-22T09:18:50;101761.0;;;33.78;30.61
64019;BME280;66942;52.138;5.216;2023-06-22T09:20:27;101765.0;;;33.74;31.23
64019;BME280;66942;52.138;5.216;2023-06-22T09:22:03;101765.0;;;33.9;31.62
64019;BME280;66942;52.138;5.216;2023-06-22T09:25:15;101758.0;;;33.79;31.89
64019;BME280;66942;52.138;5.216;2023-06-22T09:26:51;101759.0;;;33.93;32.22
64019;BME280;66942;52.138;5.216;2023-06-22T09:28:27;101758.0;;;33.81;32.74
64019;BME280;66942;52.138;5.216;2023-06-22T09:31:40;101759.0;;;33.36;33.46
64019;BME280;66942;52.138;5.216;2023-06-22T09:33:17;101757.0;;;33.85;32.87
64019;BME280;66942;52.138;5.216;2023-06-22T09:34:53;101763.0;;;34.03;32.9
64019;BME280;66942;52.138;5.216;2023-06-22T09:38:05;101764.0;;;34.01;32.24
64019;BME280;66942;52.138;5.216;2023-06-22T09:39:41;101764.0;;;33.96;32.15
64019;BME280;66942;52.138;5.216;2023-06-22T09:41:17;101761.0;;;34.04;32.67
64019;BME280;66942;52.138;5.216;2023-06-22T09:42:54;101763.0;;;34.21;32.6
64019;BME280;66942;52.138;5.216;2023-06-22T09:46:06;101763.0;;;34.01;30.81
64019;BME280;66942;52.138;5.216;2023-06-22T09:47:42;101763.0;;;34.22;30.49
64019;BME280;66942;52.138;5.216;2023-06-22T09:49:18;101760.0;;;33.89;29.79
64019;BME280;66942;52.138;5.216;2023-06-22T09:52:31;101759.0;;;34.06;29.46
64019;BME280;66942;52.138;5.216;2023-06-22T09:54:07;101755.0;;;33.9;29.4
64019;BME280;66942;52.138;5.216;2023-06-22T09:55:43;101756.0;;;34.21;29.91
64019;BME280;66942;52.138;5.216;2023-06-22T09:58:55;101753.0;;;34.19;30.71
64019;BME280;66942;52.138;5.216;2023-06-22T10:00:31;101750.0;;;34.21;31.13
64019;BME280;66942;52.138;5.216;2023-06-22T10:02:08;101749.0;;;34.29;31.03
64019;BME280;66942;52.138;5.216;2023-06-22T10:03:45;101749.0;;;33.55;32.03
64019;BME280;66942;52.138;5.216;2023-06-22T10:06:57;101748.0;;;33.76;32.37
64019;BME280;66942;52.138;5.216;2023-06-22T10:08:33;101750.0;;;33.62;32.71
64019;BME280;66942;52.138;5.216;2023-06-22T10:10:10;101748.0;;;34.19;32.47
64019;BME280;66942;52.138;5.216;2023-06-22T10:13:22;101744.0;;;34.15;32.89
64019;BME280;66942;52.138;5.216;2023-06-22T10:14:58;101748.0;;;34.1;33.17
64019;BME280;66942;52.138;5.216;2023-06-22T10:16:36;101743.0;;;33.96;33.0
64019;BME280;66942;52.138;5.216;2023-06-22T10:19:48;101743.0;;;33.92;33.46
64019;BME280;66942;52.138;5.216;2023-06-22T10:21:24;101747.0;;;33.79;32.28
64019;BME280;66942;52.138;5.216;2023-06-22T10:23:00;101748.0;;;33.94;32.12
64019;BME280;66942;52.138;5.216;2023-06-22T10:26:13;101749.0;;;33.85;32.07
64019;BME280;66942;52.138;5.216;2023-06-22T10:27:49;101746.0;;;33.76;32.4
64019;BME280;66942;52.138;5.216;2023-06-22T10:29:25;101748.0;;;33.53;32.8
64019;BME280;66942;52.138;5.216;2023-06-22T10:31:01;101745.0;;;33.71;32.25
64019;BME280;66942;52.138;5.216;2023-06-22T10:34:14;101749.0;;;33.5;32.04
64019;BME280;66942;52.138;5.216;2023-06-22T10:35:51;101748.0;;;33.46;32.56
64019;BME280;66942;52.138;5.216;2023-06-22T10:37:27;101751.0;;;33.49;32.46
64019;BME280;66942;52.138;5.216;2023-06-22T10:40:39;101755.0;;;33.35;32.53
64019;BME280;66942;52.138;5.216;2023-06-22T10:42:15;101752.0;;;33.31;32.17
64019;BME280;66942;52.138;5.216;2023-06-22T10:43:51;101757.0;;;33.24;32.47
64019;BME280;66942;52.138;5.216;2023-06-22T10:47:04;101755.0;;;33.22;32.58
64019;BME280;66942;52.138;5.216;2023-06-22T10:48:41;101758.0;;;33.1;32.65
64019;BME280;66942;52.138;5.216;2023-06-22T10:50:17;101758.0;;;33.07;32.86
64019;BME280;66942;52.138;5.216;2023-06-22T10:51:54;101759.0;;;33.03;33.03
64019;BME280;66942;52.138;5.216;2023-06-22T10:55:08;101760.0;;;32.99;33.96
64019;BME280;66942;52.138;5.216;2023-06-22T10:56:45;101755.0;;;33.14;34.03
64019;BME280;66942;52.138;5.216;2023-06-22T10:58:21;101759.0;;;33.17;34.1
64019;BME280;66942;52.138;5.216;2023-06-22T11:01:33;101756.0;;;33.17;33.64
64019;BME280;66942;52.138;5.216;2023-06-22T11:03:09;101758.0;;;33.24;33.67
64019;BME280;66942;52.138;5.216;2023-06-22T11:04:45;101762.0;;;33.11;33.74
64019;BME280;66942;52.138;5.216;2023-06-22T11:07:57;101758.0;;;33.22;33.76